sensor_id;sensor_type;location;lat;lon;timestamp;P1;P2;P0
46381;PMS5003;66809;52.974;-2.514;2023-05-21T00:01:49;12.516666666666667;11.45;
46381;PMS5003;66809;52.974;-2.514;2023-05-21T00:03:49;12.783333333333333;11.633333333333333;
46381;PMS5003;66809;52.974;-2.514;2023-05-21T00:05:49;12.966666666666667;11.766666666666667;
46381;PMS5003;66809;52.974;-2.514;2023-05-21T00:07:49;12.816666666666666;11.55;
46381;PMS5003;66809;52.974;-2.514;2023-05-21T00:09:49;12.716666666666667;11.433333333333334;
46381;PMS5003;66809;52.974;-2.514;2023-05-21T00:11:49;12.6;11.316666666666666;
46381;PMS5003;66809;52.974;-2.514;2023-05-21T00:13:49;12.516666666666667;11.3;
46381;PMS5003;66809;52.974;-2.514;2023-05-21T00:15:49;12.5;11.266666666666667;
46381;PMS5003;66809;52.974;-2.514;2023-05-21T00:17:49;12.3;11.116666666666667;
46381;PMS5003;66809;52.974;-2.514;2023-05-21T00:19:49;12.15;11.033333333333333;
46381;PMS5003;66809;52.974;-2.514;2023-05-21T00:21:49;12.0;10.916666666666666;
46381;PMS5003;66809;52.974;-2.514;2023-05-21T00:23:49;11.916666666666666;10.833333333333334;
46381;PMS5003;66809;52.974;-2.514;2023-05-21T00:25:50;11.983333333333333;10.85;
46381;PMS5003;66809;52.974;-2.514;2023-05-21T00:27:49;12.0;10.85;
46381;PMS5003;66809;52.974;-2.514;2023-05-21T00:29:49;12.066666666666666;10.966666666666667;
46381;PMS5003;66809;52.974;-2.514;2023-05-21T00:31:49;12.233333333333333;11.083333333333334;
46381;PMS5003;66809;52.974;-2.514;2023-05-21T00:33:49;12.216666666666667;11.083333333333334;
46381;PMS5003;66809;52.974;-2.514;2023-05-21T00:35:49;12.25;11.083333333333334;
46381;PMS5003;66809;52.974;-2.514;2023-05-21T00:37:49;12.3;11.133333333333333;
46381;PMS5003;66809;52.974;-2.514;2023-05-21T00:39:49;12.25;11.05;
46381;PMS5003;66809;52.974;-2.514;2023-05-21T00:41:49;12.3;11.05;
46381;PMS5003;66809;52.974;-2.514;2023-05-21T00:43:49;12.316666666666666;11.05;
46381;PMS5003;66809;52.974;-2.514;2023-05-21T00:45:50;12.45;11.166666666666666;
46381;PMS5003;66809;52.974;-2.514;2023-05-21T00:47:49;12.6;11.333333333333334;
46381;PMS5003;66809;52.974;-2.514;2023-05-21T00:49:49;12.583333333333334;11.25;
46381;PMS5003;66809;52.974;-2.514;2023-05-21T00:51:49;12.616666666666667;11.25;
46381;PMS5003;66809;52.974;-2.514;2023-05-21T00:53:49;12.65;11.266666666666667;
46381;PMS5003;66809;52.974;-2.514;2023-05-21T00:55:49;12.666666666666666;11.2;
46381;PMS5003;66809;52.974;-2.514;2023-05-21T00:57:49;12.683333333333334;11.25;
46381;PMS5003;66809;52.974;-2.514;2023-05-21T00:59:50;12.633333333333333;11.283333333333333;
46381;PMS5003;66809;52.974;-2.514;2023-05-21T01:01:49;12.683333333333334;11.366666666666667;
46381;PMS5003;66809;52.974;-2.514;2023-05-21T01:03:49;12.566666666666666;11.316666666666666;
46381;PMS5003;66809;52.974;-2.514;2023-05-21T01:05:49;12.533333333333333;11.316666666666666;
46381;PMS5003;66809;52.974;-2.514;2023-05-21T01:07:49;12.483333333333333;11.366666666666667;
46381;PMS5003;66809;52.974;-2.514;2023-05-21T01:09:49;12.516666666666667;11.366666666666667;
46381;PMS5003;66809;52.974;-2.514;2023-05-21T01:11:49;12.583333333333334;11.5;
46381;PMS5003;66809;52.974;-2.514;2023-05-21T01:13:49;12.7;11.616666666666667;
46381;PMS5003;66809;52.974;-2.514;2023-05-21T01:15:49;12.783333333333333;11.683333333333334;
46381;PMS5003;66809;52.974;-2.514;2023-05-21T01:17:49;12.9;11.8;
46381;PMS5003;66809;52.974;-2.514;2023-05-21T01:19:49;13.116666666666667;12.016666666666667;
46381;PMS5003;66809;52.974;-2.514;2023-05-21T01:21:50;13.016666666666667;11.9;
46381;PMS5003;66809;52.974;-2.514;2023-05-21T01:23:49;13.133333333333333;11.983333333333333;
46381;PMS5003;66809;52.974;-2.514;2023-05-21T01:25:49;13.25;12.133333333333333;
46381;PMS5003;66809;52.974;-2.514;2023-05-21T01:27:49;13.416666666666666;12.3;
46381;PMS5003;66809;52.974;-2.514;2023-05-21T01:29:49;13.366666666666667;12.266666666666667;
46381;PMS5003;66809;52.974;-2.514;2023-05-21T01:31:53;13.216666666666667;12.2;
46381;PMS5003;66809;52.974;-2.514;2023-05-21T01:33:49;13.2;12.183333333333334;
46381;PMS5003;66809;52.974;-2.514;2023-05-21T01:35:49;13.216666666666667;12.2;
46381;PMS5003;66809;52.974;-2.514;2023-05-21T01:37:50;13.083333333333334;12.116666666666667;
46381;PMS5003;66809;52.974;-2.514;2023-05-21T01:39:51;13.166666666666666;12.183333333333334;
46381;PMS5003;66809;52.974;-2.514;2023-05-21T01:41:49;13.2;12.183333333333334;
46381;PMS5003;66809;52.974;-2.514;2023-05-21T01:43:49;13.15;12.166666666666666;
46381;PMS5003;66809;52.974;-2.514;2023-05-21T01:45:50;12.966666666666667;12.016666666666667;
46381;PMS5003;66809;52.974;-2.514;2023-05-21T01:47:50;12.8;11.85;
46381;PMS5003;66809;52.974;-2.514;2023-05-21T01:49:49;12.8;11.883333333333333;
46381;PMS5003;66809;52.974;-2.514;2023-05-21T01:51:49;12.95;12.066666666666666;
46381;PMS5003;66809;52.974;-2.514;2023-05-21T01:53:49;12.85;11.983333333333333;
46381;PMS5003;66809;52.974;-2.514;2023-05-21T01:55:49;12.983333333333333;12.15;
46381;PMS5003;66809;52.974;-2.514;2023-05-21T01:57:50;13.0;12.166666666666666;
46381;PMS5003;66809;52.974;-2.514;2023-05-21T01:59:50;13.033333333333333;12.183333333333334;
46381;PMS5003;66809;52.974;-2.514;2023-05-21T02:01:49;12.983333333333333;12.116666666666667;
46381;PMS5003;66809;52.974;-2.514;2023-05-21T02:03:49;13.083333333333334;12.2;
46381;PMS5003;66809;52.974;-2.514;2023-05-21T02:05:49;13.066666666666666;12.183333333333334;
46381;PMS5003;66809;52.974;-2.514;2023-05-21T02:07:49;13.066666666666666;12.166666666666666;
46381;PMS5003;66809;52.974;-2.514;2023-05-21T02:09:49;13.0;12.166666666666666;
46381;PMS5003;66809;52.974;-2.514;2023-05-21T02:11:49;12.95;12.116666666666667;
46381;PMS5003;66809;52.974;-2.514;2023-05-21T02:13:49;12.9;12.066666666666666;
46381;PMS5003;66809;52.974;-2.514;2023-05-21T02:15:49;12.883333333333333;12.083333333333334;
46381;PMS5003;66809;52.974;-2.514;2023-05-21T02:17:49;12.95;12.05;
46381;PMS5003;66809;52.974;-2.514;2023-05-21T02:19:49;12.8;11.9;
46381;PMS5003;66809;52.974;-2.514;2023-05-21T02:21:49;12.816666666666666;11.933333333333334;
46381;PMS5003;66809;52.974;-2.514;2023-05-21T02:23:49;12.733333333333333;11.866666666666667;
46381;PMS5003;66809;52.974;-2.514;2023-05-21T02:25:49;12.55;11.666666666666666;
46381;PMS5003;66809;52.974;-2.514;2023-05-21T02:27:49;12.516666666666667;11.65;
46381;PMS5003;66809;52.974;-2.514;2023-05-21T02:29:49;12.366666666666667;11.516666666666667;
46381;PMS5003;66809;52.974;-2.514;2023-05-21T02:31:49;12.4;11.483333333333333;
46381;PMS5003;66809;52.974;-2.514;2023-05-21T02:33:49;12.483333333333333;11.6;
46381;PMS5003;66809;52.974;-2.514;2023-05-21T02:35:49;12.566666666666666;11.7;
46381;PMS5003;66809;52.974;-2.514;2023-05-21T02:37:49;12.766666666666667;11.866666666666667;
46381;PMS5003;66809;52.974;-2.514;2023-05-21T02:39:49;12.766666666666667;11.9;
46381;PMS5003;66809;52.974;-2.514;2023-05-21T02:41:50;12.833333333333334;11.983333333333333;
46381;PMS5003;66809;52.974;-2.514;2023-05-21T02:43:49;13.033333333333333;12.166666666666666;
46381;PMS5003;66809;52.974;-2.514;2023-05-21T02:45:49;13.05;12.2;
46381;PMS5003;66809;52.974;-2.514;2023-05-21T02:47:49;13.066666666666666;12.2;
46381;PMS5003;66809;52.974;-2.514;2023-05-21T02:49:50;13.133333333333333;12.25;
46381;PMS5003;66809;52.974;-2.514;2023-05-21T02:51:49;13.05;12.116666666666667;
46381;PMS5003;66809;52.974;-2.514;2023-05-21T02:53:49;13.066666666666666;12.133333333333333;
46381;PMS5003;66809;52.974;-2.514;2023-05-21T02:55:49;13.066666666666666;12.1;
46381;PMS5003;66809;52.974;-2.514;2023-05-21T02:57:49;13.1;12.166666666666666;
46381;PMS5003;66809;52.974;-2.514;2023-05-21T02:59:49;13.133333333333333;12.216666666666667;
46381;PMS5003;66809;52.974;-2.514;2023-05-21T03:01:49;13.1;12.183333333333334;
46381;PMS5003;66809;52.974;-2.514;2023-05-21T03:03:49;13.016666666666667;12.15;
46381;PMS5003;66809;52.974;-2.514;2023-05-21T03:05:49;13.0;12.1;
46381;PMS5003;66809;52.974;-2.514;2023-05-21T03:07:49;13.033333333333333;12.166666666666666;
46381;PMS5003;66809;52.974;-2.514;2023-05-21T03:09:49;13.116666666666667;12.216666666666667;
46381;PMS5003;66809;52.974;-2.514;2023-05-21T03:11:49;13.15;12.25;
46381;PMS5003;66809;52.974;-2.514;2023-05-21T03:13:49;13.233333333333333;12.35;
46381;PMS5003;66809;52.974;-2.514;2023-05-21T03:15:50;13.233333333333333;12.316666666666666;
46381;PMS5003;66809;52.974;-2.514;2023-05-21T03:17:49;13.266666666666667;12.45;
46381;PMS5003;66809;52.974;-2.514;2023-05-21T03:19:49;13.316666666666666;12.533333333333333;
46381;PMS5003;66809;52.974;-2.514;2023-05-21T03:21:49;13.483333333333333;12.683333333333334;
46381;PMS5003;66809;52.974;-2.514;2023-05-21T03:23:49;13.616666666666667;12.833333333333334;
46381;PMS5003;66809;52.974;-2.514;2023-05-21T03:25:49;13.75;13.0;
46381;PMS5003;66809;52.974;-2.514;2023-05-21T03:27:50;13.95;13.15;
46381;PMS5003;66809;52.974;-2.514;2023-05-21T03:29:49;14.066666666666666;13.25;
46381;PMS5003;66809;52.974;-2.514;2023-05-21T03:31:50;14.25;13.466666666666667;
46381;PMS5003;66809;52.974;-2.514;2023-05-21T03:33:49;14.366666666666667;13.583333333333334;
46381;PMS5003;66809;52.974;-2.514;2023-05-21T03:35:49;14.366666666666667;13.55;
46381;PMS5003;66809;52.974;-2.514;2023-05-21T03:37:49;14.283333333333333;13.483333333333333;
46381;PMS5003;66809;52.974;-2.514;2023-05-21T03:39:49;14.116666666666667;13.333333333333334;
46381;PMS5003;66809;52.974;-2.514;2023-05-21T03:41:49;13.833333333333334;13.116666666666667;
46381;PMS5003;66809;52.974;-2.514;2023-05-21T03:43:49;13.833333333333334;13.133333333333333;
46381;PMS5003;66809;52.974;-2.514;2023-05-21T03:45:49;13.983333333333333;13.25;
46381;PMS5003;66809;52.974;-2.514;2023-05-21T03:47:49;14.1;13.35;
46381;PMS5003;66809;52.974;-2.514;2023-05-21T03:49:49;13.933333333333334;13.233333333333333;
46381;PMS5003;66809;52.974;-2.514;2023-05-21T03:51:49;13.833333333333334;13.183333333333334;
46381;PMS5003;66809;52.974;-2.514;2023-05-21T03:53:49;13.8;13.15;
46381;PMS5003;66809;52.974;-2.514;2023-05-21T03:55:49;13.583333333333334;13.0;
46381;PMS5003;66809;52.974;-2.514;2023-05-21T03:57:49;13.333333333333334;12.766666666666667;
46381;PMS5003;66809;52.974;-2.514;2023-05-21T03:59:49;13.283333333333333;12.716666666666667;
46381;PMS5003;66809;52.974;-2.514;2023-05-21T04:01:49;13.216666666666667;12.633333333333333;
46381;PMS5003;66809;52.974;-2.514;2023-05-21T04:03:49;13.233333333333333;12.633333333333333;
46381;PMS5003;66809;52.974;-2.514;2023-05-21T04:05:49;13.283333333333333;12.733333333333333;
46381;PMS5003;66809;52.974;-2.514;2023-05-21T04:07:49;13.266666666666667;12.716666666666667;
46381;PMS5003;66809;52.974;-2.514;2023-05-21T04:09:49;13.316666666666666;12.75;
46381;PMS5003;66809;52.974;-2.514;2023-05-21T04:11:49;13.266666666666667;12.666666666666666;
46381;PMS5003;66809;52.974;-2.514;2023-05-21T04:13:49;13.166666666666666;12.566666666666666;
46381;PMS5003;66809;52.974;-2.514;2023-05-21T04:15:49;13.1;12.516666666666667;
46381;PMS5003;66809;52.974;-2.514;2023-05-21T04:17:49;12.933333333333334;12.383333333333333;
46381;PMS5003;66809;52.974;-2.514;2023-05-21T04:19:49;12.916666666666666;12.35;
46381;PMS5003;66809;52.974;-2.514;2023-05-21T04:21:49;12.916666666666666;12.333333333333334;
46381;PMS5003;66809;52.974;-2.514;2023-05-21T04:23:49;12.883333333333333;12.3;
46381;PMS5003;66809;52.974;-2.514;2023-05-21T04:25:49;12.95;12.333333333333334;
46381;PMS5003;66809;52.974;-2.514;2023-05-21T04:27:49;12.766666666666667;12.2;
46381;PMS5003;66809;52.974;-2.514;2023-05-21T04:29:49;12.916666666666666;12.266666666666667;
46381;PMS5003;66809;52.974;-2.514;2023-05-21T04:31:49;12.8;12.1;
46381;PMS5003;66809;52.974;-2.514;2023-05-21T04:33:49;12.783333333333333;12.05;
46381;PMS5003;66809;52.974;-2.514;2023-05-21T04:35:50;12.783333333333333;12.083333333333334;
46381;PMS5003;66809;52.974;-2.514;2023-05-21T04:37:49;12.85;12.166666666666666;
46381;PMS5003;66809;52.974;-2.514;2023-05-21T04:39:49;13.033333333333333;12.333333333333334;
46381;PMS5003;66809;52.974;-2.514;2023-05-21T04:41:49;13.183333333333334;12.416666666666666;
46381;PMS5003;66809;52.974;-2.514;2023-05-21T04:43:49;13.05;12.25;
46381;PMS5003;66809;52.974;-2.514;2023-05-21T04:45:49;12.983333333333333;12.15;
46381;PMS5003;66809;52.974;-2.514;2023-05-21T04:47:49;12.966666666666667;12.15;
46381;PMS5003;66809;52.974;-2.514;2023-05-21T04:49:49;13.166666666666666;12.283333333333333;
46381;PMS5003;66809;52.974;-2.514;2023-05-21T04:51:50;13.3;12.4;
46381;PMS5003;66809;52.974;-2.514;2023-05-21T04:53:49;13.45;12.55;
46381;PMS5003;66809;52.974;-2.514;2023-05-21T04:55:49;13.7;12.816666666666666;
46381;PMS5003;66809;52.974;-2.514;2023-05-21T04:57:49;13.9;13.016666666666667;
46381;PMS5003;66809;52.974;-2.514;2023-05-21T04:59:49;14.066666666666666;13.15;
46381;PMS5003;66809;52.974;-2.514;2023-05-21T05:01:49;14.083333333333334;13.2;
46381;PMS5003;66809;52.974;-2.514;2023-05-21T05:03:49;14.016666666666667;13.133333333333333;
46381;PMS5003;66809;52.974;-2.514;2023-05-21T05:05:49;14.0;13.116666666666667;
46381;PMS5003;66809;52.974;-2.514;2023-05-21T05:07:49;14.133333333333333;13.2;
46381;PMS5003;66809;52.974;-2.514;2023-05-21T05:09:49;14.166666666666666;13.283333333333333;
46381;PMS5003;66809;52.974;-2.514;2023-05-21T05:11:50;14.283333333333333;13.433333333333334;
46381;PMS5003;66809;52.974;-2.514;2023-05-21T05:13:49;14.516666666666667;13.583333333333334;
46381;PMS5003;66809;52.974;-2.514;2023-05-21T05:15:49;14.7;13.8;
46381;PMS5003;66809;52.974;-2.514;2023-05-21T05:17:49;14.933333333333334;14.033333333333333;
46381;PMS5003;66809;52.974;-2.514;2023-05-21T05:19:49;15.15;14.25;
46381;PMS5003;66809;52.974;-2.514;2023-05-21T05:21:49;15.2;14.266666666666667;
46381;PMS5003;66809;52.974;-2.514;2023-05-21T05:23:49;15.1;14.183333333333334;
46381;PMS5003;66809;52.974;-2.514;2023-05-21T05:25:49;14.85;13.966666666666667;
46381;PMS5003;66809;52.974;-2.514;2023-05-21T05:27:49;14.783333333333333;13.916666666666666;
46381;PMS5003;66809;52.974;-2.514;2023-05-21T05:29:49;14.666666666666666;13.9;
46381;PMS5003;66809;52.974;-2.514;2023-05-21T05:31:49;14.65;13.95;
46381;PMS5003;66809;52.974;-2.514;2023-05-21T05:33:49;14.65;13.966666666666667;
46381;PMS5003;66809;52.974;-2.514;2023-05-21T05:35:49;14.733333333333333;14.05;
46381;PMS5003;66809;52.974;-2.514;2023-05-21T05:37:49;14.766666666666667;14.066666666666666;
46381;PMS5003;66809;52.974;-2.514;2023-05-21T05:39:49;14.8;14.1;
46381;PMS5003;66809;52.974;-2.514;2023-05-21T05:41:49;14.85;14.2;
46381;PMS5003;66809;52.974;-2.514;2023-05-21T05:43:49;14.95;14.283333333333333;
46381;PMS5003;66809;52.974;-2.514;2023-05-21T05:45:49;14.966666666666667;14.366666666666667;
46381;PMS5003;66809;52.974;-2.514;2023-05-21T05:47:49;14.95;14.333333333333334;
46381;PMS5003;66809;52.974;-2.514;2023-05-21T05:49:49;14.9;14.283333333333333;
46381;PMS5003;66809;52.974;-2.514;2023-05-21T05:51:49;14.8;14.166666666666666;
46381;PMS5003;66809;52.974;-2.514;2023-05-21T05:53:49;14.733333333333333;14.1;
46381;PMS5003;66809;52.974;-2.514;2023-05-21T05:55:49;14.483333333333333;13.85;
46381;PMS5003;66809;52.974;-2.514;2023-05-21T05:57:49;14.383333333333333;13.733333333333333;
46381;PMS5003;66809;52.974;-2.514;2023-05-21T05:59:49;14.266666666666667;13.65;
46381;PMS5003;66809;52.974;-2.514;2023-05-21T06:01:49;14.383333333333333;13.733333333333333;
46381;PMS5003;66809;52.974;-2.514;2023-05-21T06:03:49;14.433333333333334;13.783333333333333;
46381;PMS5003;66809;52.974;-2.514;2023-05-21T06:05:49;14.433333333333334;13.75;
46381;PMS5003;66809;52.974;-2.514;2023-05-21T06:07:49;14.316666666666666;13.666666666666666;
46381;PMS5003;66809;52.974;-2.514;2023-05-21T06:09:49;14.216666666666667;13.5;
46381;PMS5003;66809;52.974;-2.514;2023-05-21T06:11:49;14.15;13.383333333333333;
46381;PMS5003;66809;52.974;-2.514;2023-05-21T06:13:49;13.95;13.25;
46381;PMS5003;66809;52.974;-2.514;2023-05-21T06:15:49;13.7;13.0;
46381;PMS5003;66809;52.974;-2.514;2023-05-21T06:17:49;13.566666666666666;12.866666666666667;
46381;PMS5003;66809;52.974;-2.514;2023-05-21T06:19:49;13.433333333333334;12.716666666666667;
46381;PMS5003;66809;52.974;-2.514;2023-05-21T06:21:49;13.433333333333334;12.7;
46381;PMS5003;66809;52.974;-2.514;2023-05-21T06:23:50;13.616666666666667;12.783333333333333;
46381;PMS5003;66809;52.974;-2.514;2023-05-21T06:25:50;13.733333333333333;12.85;
46381;PMS5003;66809;52.974;-2.514;2023-05-21T06:27:49;13.766666666666667;12.866666666666667;
46381;PMS5003;66809;52.974;-2.514;2023-05-21T06:29:49;13.933333333333334;13.016666666666667;
46381;PMS5003;66809;52.974;-2.514;2023-05-21T06:31:49;14.05;13.133333333333333;
46381;PMS5003;66809;52.974;-2.514;2023-05-21T06:33:49;14.283333333333333;13.283333333333333;
46381;PMS5003;66809;52.974;-2.514;2023-05-21T06:35:49;14.616666666666667;13.55;
46381;PMS5003;66809;52.974;-2.514;2023-05-21T06:37:49;14.95;13.85;
46381;PMS5003;66809;52.974;-2.514;2023-05-21T06:39:49;15.2;14.1;
46381;PMS5003;66809;52.974;-2.514;2023-05-21T06:41:49;15.583333333333334;14.4;
46381;PMS5003;66809;52.974;-2.514;2023-05-21T06:43:49;15.7;14.516666666666667;
46381;PMS5003;66809;52.974;-2.514;2023-05-21T06:45:50;15.833333333333334;14.633333333333333;
46381;PMS5003;66809;52.974;-2.514;2023-05-21T06:47:49;15.966666666666667;14.766666666666667;
46381;PMS5003;66809;52.974;-2.514;2023-05-21T06:49:49;16.083333333333332;14.9;
46381;PMS5003;66809;52.974;-2.514;2023-05-21T06:51:49;16.283333333333335;15.1;
46381;PMS5003;66809;52.974;-2.514;2023-05-21T06:53:49;16.383333333333333;15.216666666666667;
46381;PMS5003;66809;52.974;-2.514;2023-05-21T06:55:49;16.55;15.366666666666667;
46381;PMS5003;66809;52.974;-2.514;2023-05-21T06:57:49;16.75;15.533333333333333;
46381;PMS5003;66809;52.974;-2.514;2023-05-21T06:59:49;17.016666666666666;15.733333333333333;
46381;PMS5003;66809;52.974;-2.514;2023-05-21T07:01:49;17.116666666666667;15.85;
46381;PMS5003;66809;52.974;-2.514;2023-05-21T07:03:49;17.25;15.933333333333334;
46381;PMS5003;66809;52.974;-2.514;2023-05-21T07:05:49;17.316666666666666;16.016666666666666;
46381;PMS5003;66809;52.974;-2.514;2023-05-21T07:07:49;17.55;16.216666666666665;
46381;PMS5003;66809;52.974;-2.514;2023-05-21T07:09:49;17.566666666666666;16.266666666666666;
46381;PMS5003;66809;52.974;-2.514;2023-05-21T07:11:49;17.716666666666665;16.433333333333334;
46381;PMS5003;66809;52.974;-2.514;2023-05-21T07:13:49;17.783333333333335;16.5;
46381;PMS5003;66809;52.974;-2.514;2023-05-21T07:15:49;17.966666666666665;16.616666666666667;
46381;PMS5003;66809;52.974;-2.514;2023-05-21T07:17:49;17.9;16.533333333333335;
46381;PMS5003;66809;52.974;-2.514;2023-05-21T07:19:54;17.766666666666666;16.4;
46381;PMS5003;66809;52.974;-2.514;2023-05-21T07:21:49;17.633333333333333;16.283333333333335;
46381;PMS5003;66809;52.974;-2.514;2023-05-21T07:23:49;17.466666666666665;16.216666666666665;
46381;PMS5003;66809;52.974;-2.514;2023-05-21T07:25:49;17.383333333333333;16.116666666666667;
46381;PMS5003;66809;52.974;-2.514;2023-05-21T07:27:49;17.433333333333334;16.116666666666667;
46381;PMS5003;66809;52.974;-2.514;2023-05-21T07:29:49;17.15;15.866666666666667;
46381;PMS5003;66809;52.974;-2.514;2023-05-21T07:31:49;16.883333333333333;15.566666666666666;
46381;PMS5003;66809;52.974;-2.514;2023-05-21T07:33:49;16.566666666666666;15.3;
46381;PMS5003;66809;52.974;-2.514;2023-05-21T07:35:49;16.183333333333334;15.0;
46381;PMS5003;66809;52.974;-2.514;2023-05-21T07:37:49;15.7;14.566666666666666;
46381;PMS5003;66809;52.974;-2.514;2023-05-21T07:39:49;15.2;14.1;
46381;PMS5003;66809;52.974;-2.514;2023-05-21T07:41:49;14.733333333333333;13.65;
46381;PMS5003;66809;52.974;-2.514;2023-05-21T07:43:49;14.45;13.4;
46381;PMS5003;66809;52.974;-2.514;2023-05-21T07:45:49;14.316666666666666;13.233333333333333;
46381;PMS5003;66809;52.974;-2.514;2023-05-21T07:47:49;14.2;13.1;
46381;PMS5003;66809;52.974;-2.514;2023-05-21T07:49:49;14.55;13.5;
46381;PMS5003;66809;52.974;-2.514;2023-05-21T07:51:49;14.383333333333333;13.3;
46381;PMS5003;66809;52.974;-2.514;2023-05-21T07:53:49;14.25;13.116666666666667;
46381;PMS5003;66809;52.974;-2.514;2023-05-21T07:55:49;14.116666666666667;13.0;
46381;PMS5003;66809;52.974;-2.514;2023-05-21T07:57:49;13.8;12.733333333333333;
46381;PMS5003;66809;52.974;-2.514;2023-05-21T07:59:49;13.433333333333334;12.416666666666666;
46381;PMS5003;66809;52.974;-2.514;2023-05-21T08:01:49;13.233333333333333;12.2;
46381;PMS5003;66809;52.974;-2.514;2023-05-21T08:03:49;13.033333333333333;12.05;
46381;PMS5003;66809;52.974;-2.514;2023-05-21T08:05:50;13.0;12.016666666666667;
46381;PMS5003;66809;52.974;-2.514;2023-05-21T08:07:49;12.716666666666667;11.766666666666667;
46381;PMS5003;66809;52.974;-2.514;2023-05-21T08:09:49;12.616666666666667;11.633333333333333;
46381;PMS5003;66809;52.974;-2.514;2023-05-21T08:11:50;12.333333333333334;11.35;
46381;PMS5003;66809;52.974;-2.514;2023-05-21T08:13:49;12.183333333333334;11.2;
46381;PMS5003;66809;52.974;-2.514;2023-05-21T08:15:49;12.3;11.3;
46381;PMS5003;66809;52.974;-2.514;2023-05-21T08:17:49;12.416666666666666;11.4;
46381;PMS5003;66809;52.974;-2.514;2023-05-21T08:19:49;12.5;11.466666666666667;
46381;PMS5003;66809;52.974;-2.514;2023-05-21T08:21:49;12.433333333333334;11.416666666666666;
46381;PMS5003;66809;52.974;-2.514;2023-05-21T08:23:51;12.416666666666666;11.35;
46381;PMS5003;66809;52.974;-2.514;2023-05-21T08:25:49;12.45;11.416666666666666;
46381;PMS5003;66809;52.974;-2.514;2023-05-21T08:27:49;12.3;11.316666666666666;
46381;PMS5003;66809;52.974;-2.514;2023-05-21T08:29:50;12.216666666666667;11.233333333333333;
46381;PMS5003;66809;52.974;-2.514;2023-05-21T08:31:49;12.233333333333333;11.25;
46381;PMS5003;66809;52.974;-2.514;2023-05-21T08:33:49;12.1;11.116666666666667;
46381;PMS5003;66809;52.974;-2.514;2023-05-21T08:35:49;11.933333333333334;10.9;
46381;PMS5003;66809;52.974;-2.514;2023-05-21T08:37:49;11.816666666666666;10.766666666666667;
46381;PMS5003;66809;52.974;-2.514;2023-05-21T08:39:49;11.766666666666667;10.716666666666667;
46381;PMS5003;66809;52.974;-2.514;2023-05-21T08:41:49;11.633333333333333;10.65;
46381;PMS5003;66809;52.974;-2.514;2023-05-21T08:43:50;11.633333333333333;10.616666666666667;
46381;PMS5003;66809;52.974;-2.514;2023-05-21T08:45:51;11.6;10.583333333333334;
46381;PMS5003;66809;52.974;-2.514;2023-05-21T08:47:52;11.516666666666667;10.55;
46381;PMS5003;66809;52.974;-2.514;2023-05-21T08:49:49;10.966666666666667;10.0;
46381;PMS5003;66809;52.974;-2.514;2023-05-21T08:51:49;11.0;10.033333333333333;
46381;PMS5003;66809;52.974;-2.514;2023-05-21T08:53:49;11.0;10.05;
46381;PMS5003;66809;52.974;-2.514;2023-05-21T08:55:49;10.883333333333333;9.95;
46381;PMS5003;66809;52.974;-2.514;2023-05-21T08:57:49;10.933333333333334;9.966666666666667;
46381;PMS5003;66809;52.974;-2.514;2023-05-21T08:59:49;10.916666666666666;9.933333333333334;
46381;PMS5003;66809;52.974;-2.514;2023-05-21T09:01:49;10.85;9.9;
46381;PMS5003;66809;52.974;-2.514;2023-05-21T09:03:49;10.933333333333334;9.933333333333334;
46381;PMS5003;66809;52.974;-2.514;2023-05-21T09:05:49;10.8;9.8;
46381;PMS5003;66809;52.974;-2.514;2023-05-21T09:07:52;10.75;9.733333333333333;
46381;PMS5003;66809;52.974;-2.514;2023-05-21T09:09:51;10.716666666666667;9.716666666666667;
46381;PMS5003;66809;52.974;-2.514;2023-05-21T09:11:49;10.616666666666667;9.65;
46381;PMS5003;66809;52.974;-2.514;2023-05-21T09:13:49;10.616666666666667;9.65;
46381;PMS5003;66809;52.974;-2.514;2023-05-21T09:15:49;10.383333333333333;9.466666666666667;
46381;PMS5003;66809;52.974;-2.514;2023-05-21T09:17:49;10.133333333333333;9.25;
46381;PMS5003;66809;52.974;-2.514;2023-05-21T09:20:06;10.0;9.166666666666666;
46381;PMS5003;66809;52.974;-2.514;2023-05-21T09:21:49;9.983333333333333;9.166666666666666;
46381;PMS5003;66809;52.974;-2.514;2023-05-21T09:23:52;9.966666666666667;9.183333333333334;
46381;PMS5003;66809;52.974;-2.514;2023-05-21T09:25:49;10.016666666666667;9.266666666666667;
46381;PMS5003;66809;52.974;-2.514;2023-05-21T09:27:49;10.05;9.3;
46381;PMS5003;66809;52.974;-2.514;2023-05-21T09:29:49;10.15;9.4;
46381;PMS5003;66809;52.974;-2.514;2023-05-21T09:31:49;10.116666666666667;9.416666666666666;
46381;PMS5003;66809;52.974;-2.514;2023-05-21T09:33:49;10.216666666666667;9.5;
46381;PMS5003;66809;52.974;-2.514;2023-05-21T09:35:49;10.183333333333334;9.516666666666667;